sensor_id;sensor_type;location;lat;lon;timestamp;pressure;altitude;pressure_sealevel;temperature;humidity
18987;BME280;9627;59.236;18.142;2022-07-29T00:01:57;101807.59;;;10.67;100.00
18987;BME280;9627;59.236;18.142;2022-07-29T00:04:24;101802.34;;;10.50;100.00
18987;BME280;9627;59.236;18.142;2022-07-29T00:06:50;101804.34;;;10.48;100.00
18987;BME280;9627;59.236;18.142;2022-07-29T00:09:17;101803.31;;;10.49;100.00
18987;BME280;9627;59.236;18.142;2022-07-29T00:11:44;101799.66;;;10.42;100.00
18987;BME280;9627;59.236;18.142;2022-07-29T00:14:11;101797.16;;;10.40;100.00
18987;BME280;9627;59.236;18.142;2022-07-29T00:16:39;101799.66;;;10.42;100.00
18987;BME280;9627;59.236;18.142;2022-07-29T00:19:06;101793.59;;;10.32;100.00
18987;BME280;9627;59.236;18.142;2022-07-29T00:21:33;101796.75;;;10.27;100.00
18987;BME280;9627;59.236;18.142;2022-07-29T00:23:59;101797.75;;;10.08;100.00
18987;BME280;9627;59.236;18.142;2022-07-29T00:26:26;101806.59;;;9.91;100.00
18987;BME280;9627;59.236;18.142;2022-07-29T00:28:56;101794.53;;;9.97;100.00
18987;BME280;9627;59.236;18.142;2022-07-29T00:31:23;101795.81;;;10.10;100.00
18987;BME280;9627;59.236;18.142;2022-07-29T00:33:51;101797.38;;;10.03;100.00
18987;BME280;9627;59.236;18.142;2022-07-29T00:36:18;101803.59;;;9.94;100.00
18987;BME280;9627;59.236;18.142;2022-07-29T00:38:43;101796.25;;;10.06;100.00
18987;BME280;9627;59.236;18.142;2022-07-29T00:41:11;101796.69;;;10.19;100.00
18987;BME280;9627;59.236;18.142;2022-07-29T00:43:37;101794.84;;;10.45;100.00
18987;BME280;9627;59.236;18.142;2022-07-29T00:46:04;101798.50;;;10.18;100.00
18987;BME280;9627;59.236;18.142;2022-07-29T00:48:31;101791.47;;;10.09;100.00
18987;BME280;9627;59.236;18.142;2022-07-29T00:50:59;101791.47;;;9.92;100.00
18987;BME280;9627;59.236;18.142;2022-07-29T00:53:26;101792.84;;;9.78;100.00
18987;BME280;9627;59.236;18.142;2022-07-29T00:55:53;101789.75;;;9.83;100.00
18987;BME280;9627;59.236;18.142;2022-07-29T00:58:20;101784.03;;;9.95;100.00
18987;BME280;9627;59.236;18.142;2022-07-29T01:00:47;101789.56;;;10.02;100.00
18987;BME280;9627;59.236;18.142;2022-07-29T01:03:13;101784.03;;;10.13;100.00
18987;BME280;9627;59.236;18.142;2022-07-29T01:05:40;101789.72;;;10.18;100.00
18987;BME280;9627;59.236;18.142;2022-07-29T01:08:10;101792.00;;;10.13;100.00
18987;BME280;9627;59.236;18.142;2022-07-29T01:10:38;101785.72;;;10.14;100.00
18987;BME280;9627;59.236;18.142;2022-07-29T01:13:06;101784.16;;;10.29;100.00
18987;BME280;9627;59.236;18.142;2022-07-29T01:15:33;101790.06;;;10.82;100.00
18987;BME280;9627;59.236;18.142;2022-07-29T01:18:07;101786.66;;;11.06;100.00
18987;BME280;9627;59.236;18.142;2022-07-29T01:20:39;101781.84;;;11.17;100.00
18987;BME280;9627;59.236;18.142;2022-07-29T01:26:16;101791.03;;;11.31;100.00
18987;BME280;9627;59.236;18.142;2022-07-29T01:28:54;101786.41;;;10.75;100.00
18987;BME280;9627;59.236;18.142;2022-07-29T01:31:24;101789.44;;;10.55;100.00
18987;BME280;9627;59.236;18.142;2022-07-29T01:33:55;101784.75;;;10.49;100.00
18987;BME280;9627;59.236;18.142;2022-07-29T01:36:25;101793.69;;;10.81;100.00
18987;BME280;9627;59.236;18.142;2022-07-29T01:38:57;101786.16;;;11.10;100.00
18987;BME280;9627;59.236;18.142;2022-07-29T01:41:25;101796.22;;;10.91;100.00
18987;BME280;9627;59.236;18.142;2022-07-29T01:43:57;101784.75;;;10.49;100.00
18987;BME280;9627;59.236;18.142;2022-07-29T01:46:27;101792.31;;;10.36;100.00
18987;BME280;9627;59.236;18.142;2022-07-29T01:48:57;101785.00;;;10.30;100.00
18987;BME280;9627;59.236;18.142;2022-07-29T01:51:27;101790.09;;;10.23;100.00
18987;BME280;9627;59.236;18.142;2022-07-29T01:53:58;101791.03;;;10.14;100.00
18987;BME280;9627;59.236;18.142;2022-07-29T01:56:27;101789.88;;;10.16;100.00
18987;BME280;9627;59.236;18.142;2022-07-29T01:58:59;101788.41;;;10.22;100.00
18987;BME280;9627;59.236;18.142;2022-07-29T02:01:27;101791.50;;;10.69;100.00
18987;BME280;9627;59.236;18.142;2022-07-29T02:03:56;101790.56;;;10.86;100.00
18987;BME280;9627;59.236;18.142;2022-07-29T02:06:23;101788.16;;;10.67;100.00
18987;BME280;9627;59.236;18.142;2022-07-29T02:08:51;101781.84;;;10.34;100.00
18987;BME280;9627;59.236;18.142;2022-07-29T02:11:19;101782.44;;;10.20;100.00
18987;BME280;9627;59.236;18.142;2022-07-29T02:13:46;101787.75;;;10.02;100.00
18987;BME280;9627;59.236;18.142;2022-07-29T02:16:15;101790.44;;;9.85;100.00
18987;BME280;9627;59.236;18.142;2022-07-29T02:18:45;101790.09;;;9.62;100.00
18987;BME280;9627;59.236;18.142;2022-07-29T02:21:14;101790.84;;;9.72;100.00
18987;BME280;9627;59.236;18.142;2022-07-29T02:23:45;101789.91;;;9.99;100.00
18987;BME280;9627;59.236;18.142;2022-07-29T02:26:12;101797.47;;;9.76;100.00
18987;BME280;9627;59.236;18.142;2022-07-29T02:28:39;101799.28;;;9.93;100.00
18987;BME280;9627;59.236;18.142;2022-07-29T02:31:06;101788.47;;;9.87;100.00
18987;BME280;9627;59.236;18.142;2022-07-29T02:33:35;101796.41;;;9.87;100.00
18987;BME280;9627;59.236;18.142;2022-07-29T02:36:01;101794.22;;;9.82;100.00
18987;BME280;9627;59.236;18.142;2022-07-29T02:38:29;101792.94;;;9.69;100.00
18987;BME280;9627;59.236;18.142;2022-07-29T02:41:15;101800.16;;;9.59;100.00
18987;BME280;9627;59.236;18.142;2022-07-29T02:43:43;101801.97;;;9.58;100.00
18987;BME280;9627;59.236;18.142;2022-07-29T02:46:11;101799.84;;;9.62;100.00
18987;BME280;9627;59.236;18.142;2022-07-29T02:48:41;101801.22;;;9.66;100.00
18987;BME280;9627;59.236;18.142;2022-07-29T02:51:12;101806.94;;;9.96;100.00
18987;BME280;9627;59.236;18.142;2022-07-29T02:53:39;101810.75;;;10.37;100.00
18987;BME280;9627;59.236;18.142;2022-07-29T02:56:09;101805.34;;;10.80;100.00
18987;BME280;9627;59.236;18.142;2022-07-29T02:58:38;101805.94;;;11.16;100.00
18987;BME280;9627;59.236;18.142;2022-07-29T03:01:07;101815.47;;;11.35;100.00
18987;BME280;9627;59.236;18.142;2022-07-29T03:03:37;101819.81;;;11.52;100.00
18987;BME280;9627;59.236;18.142;2022-07-29T03:06:06;101813.19;;;11.48;100.00
18987;BME280;9627;59.236;18.142;2022-07-29T03:08:34;101812.00;;;11.34;100.00
18987;BME280;9627;59.236;18.142;2022-07-29T03:11:01;101818.06;;;11.10;100.00
18987;BME280;9627;59.236;18.142;2022-07-29T03:13:28;101817.84;;;10.96;100.00
18987;BME280;9627;59.236;18.142;2022-07-29T03:15:55;101816.34;;;10.93;100.00
18987;BME280;9627;59.236;18.142;2022-07-29T03:18:23;101816.84;;;10.97;100.00
18987;BME280;9627;59.236;18.142;2022-07-29T03:20:50;101819.66;;;10.95;100.00
18987;BME280;9627;59.236;18.142;2022-07-29T03:23:19;101831.28;;;10.94;100.00
18987;BME280;9627;59.236;18.142;2022-07-29T03:25:47;101825.50;;;10.99;100.00
18987;BME280;9627;59.236;18.142;2022-07-29T03:28:14;101826.88;;;11.11;100.00
18987;BME280;9627;59.236;18.142;2022-07-29T03:30:41;101831.72;;;11.23;100.00
18987;BME280;9627;59.236;18.142;2022-07-29T03:33:07;101826.97;;;11.59;100.00
18987;BME280;9627;59.236;18.142;2022-07-29T03:35:34;101830.84;;;12.05;100.00
18987;BME280;9627;59.236;18.142;2022-07-29T03:38:01;101825.34;;;12.39;100.00
18987;BME280;9627;59.236;18.142;2022-07-29T03:40:30;101825.28;;;12.63;100.00
18987;BME280;9627;59.236;18.142;2022-07-29T03:42:57;101830.75;;;12.77;100.00
18987;BME280;9627;59.236;18.142;2022-07-29T03:45:25;101826.69;;;12.89;100.00
18987;BME280;9627;59.236;18.142;2022-07-29T03:47:53;101829.44;;;14.62;100.00
18987;BME280;9627;59.236;18.142;2022-07-29T03:50:21;101830.94;;;16.97;100.00
18987;BME280;9627;59.236;18.142;2022-07-29T03:52:48;101819.03;;;18.25;100.00
18987;BME280;9627;59.236;18.142;2022-07-29T03:55:15;101823.94;;;18.81;100.00
18987;BME280;9627;59.236;18.142;2022-07-29T03:57:44;101812.72;;;19.72;100.00
18987;BME280;9627;59.236;18.142;2022-07-29T04:00:11;101812.22;;;20.38;100.00
18987;BME280;9627;59.236;18.142;2022-07-29T04:02:38;101810.88;;;21.19;100.00
18987;BME280;9627;59.236;18.142;2022-07-29T04:05:05;101823.44;;;21.43;100.00
18987;BME280;9627;59.236;18.142;2022-07-29T04:07:37;101825.59;;;21.82;100.00
18987;BME280;9627;59.236;18.142;2022-07-29T04:10:04;101822.09;;;21.93;100.00
18987;BME280;9627;59.236;18.142;2022-07-29T04:12:31;101824.47;;;22.13;100.00
18987;BME280;9627;59.236;18.142;2022-07-29T04:14:59;101826.13;;;21.73;100.00
18987;BME280;9627;59.236;18.142;2022-07-29T04:17:26;101837.84;;;21.96;100.00
18987;BME280;9627;59.236;18.142;2022-07-29T04:19:52;101829.91;;;22.48;100.00
18987;BME280;9627;59.236;18.142;2022-07-29T04:22:19;101825.09;;;23.13;100.00
18987;BME280;9627;59.236;18.142;2022-07-29T04:24:46;101828.75;;;23.18;100.00
18987;BME280;9627;59.236;18.142;2022-07-29T04:27:13;101819.75;;;23.57;100.00
18987;BME280;9627;59.236;18.142;2022-07-29T04:29:39;101825.94;;;23.69;100.00
18987;BME280;9627;59.236;18.142;2022-07-29T04:32:07;101816.97;;;24.14;100.00
18987;BME280;9627;59.236;18.142;2022-07-29T04:34:34;101819.81;;;24.24;100.00
18987;BME280;9627;59.236;18.142;2022-07-29T04:37:00;101817.63;;;24.59;100.00
18987;BME280;9627;59.236;18.142;2022-07-29T04:39:27;101819.50;;;24.97;100.00
18987;BME280;9627;59.236;18.142;2022-07-29T04:41:54;101821.34;;;25.61;100.00
18987;BME280;9627;59.236;18.142;2022-07-29T04:44:21;101819.38;;;26.15;100.00
18987;BME280;9627;59.236;18.142;2022-07-29T04:46:48;101820.13;;;26.42;100.00
18987;BME280;9627;59.236;18.142;2022-07-29T04:49:16;101817.41;;;25.73;100.00
18987;BME280;9627;59.236;18.142;2022-07-29T04:51:42;101823.78;;;26.62;100.00
18987;BME280;9627;59.236;18.142;2022-07-29T04:54:09;101811.91;;;27.81;100.00
18987;BME280;9627;59.236;18.142;2022-07-29T04:56:36;101808.66;;;28.29;100.00
18987;BME280;9627;59.236;18.142;2022-07-29T04:59:02;101811.88;;;28.41;100.00
18987;BME280;9627;59.236;18.142;2022-07-29T05:01:29;101812.25;;;29.03;100.00
18987;BME280;9627;59.236;18.142;2022-07-29T05:03:55;101812.00;;;29.49;100.00
18987;BME280;9627;59.236;18.142;2022-07-29T05:06:23;101806.25;;;29.55;100.00
18987;BME280;9627;59.236;18.142;2022-07-29T05:08:50;101820.03;;;29.79;100.00
18987;BME280;9627;59.236;18.142;2022-07-29T05:11:17;101820.88;;;29.69;100.00
18987;BME280;9627;59.236;18.142;2022-07-29T05:13:43;101826.66;;;28.15;100.00
18987;BME280;9627;59.236;18.142;2022-07-29T05:16:10;101817.47;;;29.00;100.00
18987;BME280;9627;59.236;18.142;2022-07-29T05:18:37;101829.72;;;30.00;100.00
18987;BME280;9627;59.236;18.142;2022-07-29T05:21:04;101823.44;;;30.28;100.00
18987;BME280;9627;59.236;18.142;2022-07-29T05:23:33;101827.84;;;30.24;100.00
18987;BME280;9627;59.236;18.142;2022-07-29T05:25:59;101833.25;;;29.67;100.00
18987;BME280;9627;59.236;18.142;2022-07-29T05:28:26;101825.19;;;29.42;100.00
18987;BME280;9627;59.236;18.142;2022-07-29T05:30:53;101836.69;;;30.16;100.00
18987;BME280;9627;59.236;18.142;2022-07-29T05:33:19;101823.25;;;29.47;100.00
18987;BME280;9627;59.236;18.142;2022-07-29T05:35:46;101830.56;;;30.29;100.00
18987;BME280;9627;59.236;18.142;2022-07-29T05:38:13;101836.75;;;30.40;100.00
18987;BME280;9627;59.236;18.142;2022-07-29T05:40:41;101824.34;;;30.47;100.00
18987;BME280;9627;59.236;18.142;2022-07-29T05:43:07;101830.47;;;30.63;100.00
18987;BME280;9627;59.236;18.142;2022-07-29T05:45:34;101830.81;;;30.33;100.00
18987;BME280;9627;59.236;18.142;2022-07-29T05:48:01;101823.84;;;30.92;100.00
18987;BME280;9627;59.236;18.142;2022-07-29T05:50:27;101823.72;;;31.77;100.00
18987;BME280;9627;59.236;18.142;2022-07-29T05:52:54;101835.63;;;30.12;100.00
18987;BME280;9627;59.236;18.142;2022-07-29T05:55:20;101830.84;;;31.03;100.00
18987;BME280;9627;59.236;18.142;2022-07-29T05:57:48;101835.16;;;30.86;100.00
18987;BME280;9627;59.236;18.142;2022-07-29T06:00:16;101836.28;;;29.99;100.00
18987;BME280;9627;59.236;18.142;2022-07-29T06:02:42;101836.56;;;30.31;100.00
18987;BME280;9627;59.236;18.142;2022-07-29T06:05:09;101843.72;;;29.55;100.00
18987;BME280;9627;59.236;18.142;2022-07-29T06:07:36;101842.44;;;27.47;100.00
18987;BME280;9627;59.236;18.142;2022-07-29T06:10:02;101845.59;;;29.05;100.00
18987;BME280;9627;59.236;18.142;2022-07-29T06:12:29;101843.91;;;29.19;100.00
18987;BME280;9627;59.236;18.142;2022-07-29T06:14:57;101845.97;;;30.20;100.00
18987;BME280;9627;59.236;18.142;2022-07-29T06:17:24;101845.97;;;30.20;100.00
18987;BME280;9627;59.236;18.142;2022-07-29T06:19:50;101844.06;;;31.39;100.00
18987;BME280;9627;59.236;18.142;2022-07-29T06:22:17;101839.13;;;31.59;88.33
18987;BME280;9627;59.236;18.142;2022-07-29T06:24:43;101849.00;;;32.70;81.62
18987;BME280;9627;59.236;18.142;2022-07-29T06:27:10;101845.41;;;33.38;76.40
18987;BME280;9627;59.236;18.142;2022-07-29T06:29:36;101844.25;;;32.62;66.26
18987;BME280;9627;59.236;18.142;2022-07-29T06:32:05;101844.34;;;34.27;83.06
18987;BME280;9627;59.236;18.142;2022-07-29T06:34:31;101844.97;;;34.24;77.97
18987;BME280;9627;59.236;18.142;2022-07-29T06:36:58;101842.59;;;32.75;69.36
18987;BME280;9627;59.236;18.142;2022-07-29T06:39:24;101848.56;;;30.64;88.01
18987;BME280;9627;59.236;18.142;2022-07-29T06:41:51;101840.56;;;31.89;68.82
18987;BME280;9627;59.236;18.142;2022-07-29T06:44:17;101845.53;;;32.06;71.32
18987;BME280;9627;59.236;18.142;2022-07-29T06:46:44;101849.03;;;32.25;81.90
18987;BME280;9627;59.236;18.142;2022-07-29T06:49:15;101841.63;;;32.39;61.81
18987;BME280;9627;59.236;18.142;2022-07-29T06:51:42;101843.19;;;31.99;60.17
18987;BME280;9627;59.236;18.142;2022-07-29T06:54:09;101841.41;;;33.08;69.59
18987;BME280;9627;59.236;18.142;2022-07-29T06:56:36;101848.94;;;30.76;62.68
18987;BME280;9627;59.236;18.142;2022-07-29T06:59:03;101857.19;;;26.95;67.90
18987;BME280;9627;59.236;18.142;2022-07-29T07:01:30;101857.13;;;27.36;74.69
18987;BME280;9627;59.236;18.142;2022-07-29T07:03:56;101861.84;;;25.36;72.71
18987;BME280;9627;59.236;18.142;2022-07-29T07:06:25;101861.16;;;26.30;81.10
18987;BME280;9627;59.236;18.142;2022-07-29T07:08:51;101859.69;;;29.38;100.00
18987;BME280;9627;59.236;18.142;2022-07-29T07:11:18;101854.81;;;31.35;79.04
18987;BME280;9627;59.236;18.142;2022-07-29T07:13:45;101847.75;;;31.85;65.85
18987;BME280;9627;59.236;18.142;2022-07-29T07:16:12;101848.75;;;32.40;56.51
18987;BME280;9627;59.236;18.142;2022-07-29T07:18:38;101854.50;;;32.43;60.40
18987;BME280;9627;59.236;18.142;2022-07-29T07:21:05;101848.91;;;35.02;59.08
18987;BME280;9627;59.236;18.142;2022-07-29T07:23:33;101845.97;;;32.99;51.84
18987;BME280;9627;59.236;18.142;2022-07-29T07:26:00;101848.00;;;32.94;53.51
18987;BME280;9627;59.236;18.142;2022-07-29T07:28:28;101850.81;;;31.83;48.41
18987;BME280;9627;59.236;18.142;2022-07-29T07:30:54;101848.72;;;32.72;52.59
18987;BME280;9627;59.236;18.142;2022-07-29T07:33:21;101832.66;;;33.06;50.47
18987;BME280;9627;59.236;18.142;2022-07-29T07:35:48;101834.56;;;33.06;51.15
18987;BME280;9627;59.236;18.142;2022-07-29T07:38:15;101838.53;;;34.07;62.91
18987;BME280;9627;59.236;18.142;2022-07-29T07:40:43;101845.25;;;34.23;54.77
18987;BME280;9627;59.236;18.142;2022-07-29T07:43:11;101830.13;;;34.12;53.30
18987;BME280;9627;59.236;18.142;2022-07-29T07:45:38;101829.56;;;32.80;50.78
18987;BME280;9627;59.236;18.142;2022-07-29T07:48:05;101831.53;;;35.01;55.27
18987;BME280;9627;59.236;18.142;2022-07-29T07:50:31;101829.59;;;29.81;48.38
18987;BME280;9627;59.236;18.142;2022-07-29T07:52:58;101834.97;;;30.77;53.22
18987;BME280;9627;59.236;18.142;2022-07-29T07:55:27;101829.66;;;30.62;56.40
18987;BME280;9627;59.236;18.142;2022-07-29T07:57:55;101826.00;;;30.95;55.13
18987;BME280;9627;59.236;18.142;2022-07-29T08:00:22;101832.41;;;32.03;53.99
18987;BME280;9627;59.236;18.142;2022-07-29T08:02:49;101833.25;;;32.30;50.77
18987;BME280;9627;59.236;18.142;2022-07-29T08:05:16;101828.16;;;32.10;49.53
18987;BME280;9627;59.236;18.142;2022-07-29T08:07:43;101831.28;;;32.76;62.20
18987;BME280;9627;59.236;18.142;2022-07-29T08:10:10;101829.41;;;33.98;55.03
18987;BME280;9627;59.236;18.142;2022-07-29T08:12:37;101834.00;;;35.20;52.10
18987;BME280;9627;59.236;18.142;2022-07-29T08:15:07;101835.75;;;34.59;52.43
18987;BME280;9627;59.236;18.142;2022-07-29T08:17:33;101836.28;;;35.86;46.46
18987;BME280;9627;59.236;18.142;2022-07-29T08:20:00;101836.47;;;35.56;45.94
18987;BME280;9627;59.236;18.142;2022-07-29T08:22:27;101837.88;;;36.68;48.62
18987;BME280;9627;59.236;18.142;2022-07-29T08:24:53;101831.84;;;35.00;44.35
18987;BME280;9627;59.236;18.142;2022-07-29T08:27:21;101835.47;;;35.17;48.98
18987;BME280;9627;59.236;18.142;2022-07-29T08:29:47;101834.53;;;34.43;45.72
18987;BME280;9627;59.236;18.142;2022-07-29T08:32:16;101823.59;;;33.99;46.22
18987;BME280;9627;59.236;18.142;2022-07-29T08:34:42;101828.63;;;34.28;45.75
18987;BME280;9627;59.236;18.142;2022-07-29T08:37:11;101821.84;;;35.81;45.01
18987;BME280;9627;59.236;18.142;2022-07-29T08:39:37;101822.97;;;33.44;45.09
18987;BME280;9627;59.236;18.142;2022-07-29T08:42:04;101829.63;;;35.36;49.31
18987;BME280;9627;59.236;18.142;2022-07-29T08:44:31;101823.22;;;32.39;43.23
18987;BME280;9627;59.236;18.142;2022-07-29T08:46:59;101828.78;;;30.14;45.89
18987;BME280;9627;59.236;18.142;2022-07-29T08:49:27;101832.91;;;29.29;79.39
18987;BME280;9627;59.236;18.142;2022-07-29T08:51:54;101833.00;;;29.09;61.56
18987;BME280;9627;59.236;18.142;2022-07-29T08:54:21;101836.50;;;28.21;76.23
18987;BME280;9627;59.236;18.142;2022-07-29T08:56:50;101834.63;;;25.09;64.27
18987;BME280;9627;59.236;18.142;2022-07-29T08:59:17;101841.72;;;23.44;83.59
18987;BME280;9627;59.236;18.142;2022-07-29T09:01:45;101840.72;;;24.23;90.04
18987;BME280;9627;59.236;18.142;2022-07-29T09:04:13;101839.28;;;23.43;90.38
18987;BME280;9627;59.236;18.142;2022-07-29T09:06:44;101844.59;;;22.40;100.00
18987;BME280;9627;59.236;18.142;2022-07-29T09:09:11;101839.59;;;23.07;97.94
18987;BME280;9627;59.236;18.142;2022-07-29T09:11:39;101841.53;;;22.71;98.75
18987;BME280;9627;59.236;18.142;2022-07-29T09:14:06;101828.47;;;24.75;89.65
18987;BME280;9627;59.236;18.142;2022-07-29T09:19:24;101831.53;;;28.63;94.16
18987;BME280;9627;59.236;18.142;2022-07-29T09:21:53;101830.88;;;30.75;74.14
18987;BME280;9627;59.236;18.142;2022-07-29T09:24:22;101823.88;;;31.85;58.82
18987;BME280;9627;59.236;18.142;2022-07-29T09:26:49;101814.38;;;32.42;58.43
18987;BME280;9627;59.236;18.142;2022-07-29T09:29:16;101822.16;;;33.08;60.75
18987;BME280;9627;59.236;18.142;2022-07-29T09:31:44;101818.16;;;30.89;53.37
18987;BME280;9627;59.236;18.142;2022-07-29T09:34:12;101818.22;;;29.20;52.66
18987;BME280;9627;59.236;18.142;2022-07-29T09:36:39;101823.13;;;27.89;69.72
18987;BME280;9627;59.236;18.142;2022-07-29T09:39:08;101824.88;;;27.23;72.66
18987;BME280;9627;59.236;18.142;2022-07-29T09:41:45;101824.19;;;28.38;73.98
18987;BME280;9627;59.236;18.142;2022-07-29T09:44:12;101822.56;;;27.72;87.75
18987;BME280;9627;59.236;18.142;2022-07-29T09:46:40;101813.88;;;28.10;70.44
18987;BME280;9627;59.236;18.142;2022-07-29T09:49:07;101819.56;;;26.40;67.93
18987;BME280;9627;59.236;18.142;2022-07-29T09:51:34;101814.69;;;28.06;93.08
18987;BME280;9627;59.236;18.142;2022-07-29T09:54:01;101817.31;;;30.07;62.07
18987;BME280;9627;59.236;18.142;2022-07-29T09:56:40;101819.13;;;29.50;61.10
18987;BME280;9627;59.236;18.142;2022-07-29T09:59:07;101815.16;;;28.43;60.98
18987;BME280;9627;59.236;18.142;2022-07-29T10:01:36;101823.94;;;30.01;65.83
18987;BME280;9627;59.236;18.142;2022-07-29T10:04:03;101819.16;;;30.69;59.95
18987;BME280;9627;59.236;18.142;2022-07-29T10:06:29;101810.78;;;31.45;56.34
18987;BME280;9627;59.236;18.142;2022-07-29T10:09:06;101810.28;;;31.94;65.89
18987;BME280;9627;59.236;18.142;2022-07-29T10:11:33;101814.75;;;31.90;57.70
18987;BME280;9627;59.236;18.142;2022-07-29T10:14:02;101813.91;;;29.53;48.47
18987;BME280;9627;59.236;18.142;2022-07-29T10:16:29;101806.22;;;32.37;49.82
18987;BME280;9627;59.236;18.142;2022-07-29T10:18:59;101821.50;;;30.00;52.14
18987;BME280;9627;59.236;18.142;2022-07-29T10:21:26;101819.31;;;28.00;53.92
18987;BME280;9627;59.236;18.142;2022-07-29T10:23:53;101823.22;;;27.17;77.61
18987;BME280;9627;59.236;18.142;2022-07-29T10:26:20;101817.00;;;26.65;73.52
18987;BME280;9627;59.236;18.142;2022-07-29T10:28:46;101818.78;;;24.63;80.36
18987;BME280;9627;59.236;18.142;2022-07-29T10:31:15;101824.25;;;25.06;92.70
18987;BME280;9627;59.236;18.142;2022-07-29T10:33:47;101825.56;;;23.77;99.48
18987;BME280;9627;59.236;18.142;2022-07-29T10:36:21;101829.78;;;21.78;100.00
18987;BME280;9627;59.236;18.142;2022-07-29T10:38:52;101832.13;;;22.39;100.00
18987;BME280;9627;59.236;18.142;2022-07-29T10:41:26;101824.97;;;23.08;100.00
18987;BME280;9627;59.236;18.142;2022-07-29T10:44:00;101827.31;;;23.55;100.00
18987;BME280;9627;59.236;18.142;2022-07-29T10:46:33;101825.94;;;25.34;100.00
18987;BME280;9627;59.236;18.142;2022-07-29T10:49:07;101813.91;;;26.10;100.00
18987;BME280;9627;59.236;18.142;2022-07-29T10:51:50;101812.38;;;26.66;100.00
18987;BME280;9627;59.236;18.142;2022-07-29T10:54:18;101805.91;;;28.24;74.77
18987;BME280;9627;59.236;18.142;2022-07-29T10:56:45;101810.50;;;28.64;66.11
18987;BME280;9627;59.236;18.142;2022-07-29T10:59:25;101808.81;;;27.27;89.66
18987;BME280;9627;59.236;18.142;2022-07-29T11:01:55;101803.13;;;27.33;71.47
18987;BME280;9627;59.236;18.142;2022-07-29T11:07:07;101808.81;;;24.68;95.72
18987;BME280;9627;59.236;18.142;2022-07-29T11:09:34;101812.09;;;24.92;100.00
18987;BME280;9627;59.236;18.142;2022-07-29T11:12:00;101800.50;;;25.18;91.87
18987;BME280;9627;59.236;18.142;2022-07-29T11:17:13;101801.72;;;24.67;93.43
18987;BME280;9627;59.236;18.142;2022-07-29T11:19:40;101795.16;;;24.63;92.97
18987;BME280;9627;59.236;18.142;2022-07-29T11:22:07;101793.22;;;23.59;97.54
18987;BME280;9627;59.236;18.142;2022-07-29T11:24:34;101802.13;;;22.64;100.00
18987;BME280;9627;59.236;18.142;2022-07-29T11:27:07;101791.31;;;22.17;100.00
18987;BME280;9627;59.236;18.142;2022-07-29T11:29:34;101782.19;;;24.87;100.00
18987;BME280;9627;59.236;18.142;2022-07-29T11:32:07;101786.56;;;24.50;86.69
18987;BME280;9627;59.236;18.142;2022-07-29T11:34:36;101789.41;;;24.22;83.79
18987;BME280;9627;59.236;18.142;2022-07-29T11:37:18;101785.53;;;21.91;100.00
18987;BME280;9627;59.236;18.142;2022-07-29T11:39:46;101786.19;;;21.75;100.00
18987;BME280;9627;59.236;18.142;2022-07-29T11:44:54;101785.34;;;24.79;98.79
18987;BME280;9627;59.236;18.142;2022-07-29T11:47:22;101771.50;;;28.28;70.99
18987;BME280;9627;59.236;18.142;2022-07-29T11:49:51;101786.38;;;26.95;60.64
18987;BME280;9627;59.236;18.142;2022-07-29T11:52:18;101781.69;;;26.80;71.01
18987;BME280;9627;59.236;18.142;2022-07-29T11:54:46;101782.94;;;26.67;71.68
18987;BME280;9627;59.236;18.142;2022-07-29T11:57:14;101785.16;;;29.17;100.00
18987;BME280;9627;59.236;18.142;2022-07-29T11:59:42;101772.84;;;28.46;64.82
18987;BME280;9627;59.236;18.142;2022-07-29T12:02:09;101777.53;;;27.75;66.58
18987;BME280;9627;59.236;18.142;2022-07-29T12:04:46;101785.63;;;26.11;85.30
18987;BME280;9627;59.236;18.142;2022-07-29T12:07:16;101784.00;;;27.23;79.96
18987;BME280;9627;59.236;18.142;2022-07-29T12:09:48;101779.63;;;27.12;68.31
18987;BME280;9627;59.236;18.142;2022-07-29T12:12:15;101777.28;;;27.76;82.01
18987;BME280;9627;59.236;18.142;2022-07-29T12:14:42;101778.63;;;26.72;75.78
18987;BME280;9627;59.236;18.142;2022-07-29T12:17:24;101778.94;;;26.75;74.47
18987;BME280;9627;59.236;18.142;2022-07-29T12:19:52;101783.81;;;25.58;79.73
18987;BME280;9627;59.236;18.142;2022-07-29T12:22:25;101775.72;;;26.36;70.20
18987;BME280;9627;59.236;18.142;2022-07-29T12:24:53;101774.72;;;24.99;75.49
18987;BME280;9627;59.236;18.142;2022-07-29T12:27:20;101777.47;;;23.89;84.45
18987;BME280;9627;59.236;18.142;2022-07-29T12:29:54;101781.66;;;23.97;90.39
18987;BME280;9627;59.236;18.142;2022-07-29T12:32:21;101779.22;;;23.34;94.61
18987;BME280;9627;59.236;18.142;2022-07-29T12:34:48;101771.19;;;22.99;87.75
18987;BME280;9627;59.236;18.142;2022-07-29T12:37:15;101773.09;;;22.25;93.87
18987;BME280;9627;59.236;18.142;2022-07-29T12:39:44;101783.94;;;22.99;100.00
18987;BME280;9627;59.236;18.142;2022-07-29T12:42:11;101772.88;;;23.73;98.76
18987;BME280;9627;59.236;18.142;2022-07-29T12:44:44;101779.78;;;25.12;100.00
18987;BME280;9627;59.236;18.142;2022-07-29T12:47:11;101780.56;;;24.69;100.00
18987;BME280;9627;59.236;18.142;2022-07-29T12:49:38;101779.53;;;23.82;100.00
18987;BME280;9627;59.236;18.142;2022-07-29T12:54:48;101766.63;;;27.70;100.00
18987;BME280;9627;59.236;18.142;2022-07-29T12:57:14;101776.59;;;25.73;100.00
18987;BME280;9627;59.236;18.142;2022-07-29T12:59:41;101774.81;;;27.55;100.00
18987;BME280;9627;59.236;18.142;2022-07-29T13:02:19;101771.00;;;26.22;100.00
18987;BME280;9627;59.236;18.142;2022-07-29T13:04:54;101770.75;;;26.23;100.00
18987;BME280;9627;59.236;18.142;2022-07-29T13:07:23;101774.00;;;25.89;100.00